Time;durP1;ratioP1;P1;durP2;ratioP2;P2;SDS_P1;SDS_P2;PMS_P1;PMS_P2;Temp;Humidity;BMP_temperature;BMP_pressure;BME280_temperature;BME280_humidity;BME280_pressure;Samples;Min_cycle;Max_cycle;Signal;HPM_P1;HPM_P2
2022/04/08 00:01:59;;;;;;;8.07;2.10;;;7.00;99.90;;;;;;5091672;28;20054;-60
2022/04/08 00:04:25;;;;;;;8.00;2.13;;;6.90;99.90;;;;;;5089683;28;20110;-59
2022/04/08 00:06:51;;;;;;;9.50;2.40;;;6.90;99.90;;;;;;5090432;28;20036;-62
2022/04/08 00:09:16;;;;;;;11.07;2.90;;;6.80;99.90;;;;;;5090016;28;20032;-60
2022/04/08 00:11:42;;;;;;;11.05;2.70;;;6.80;99.90;;;;;;5089289;28;20035;-61
2022/04/08 00:14:08;;;;;;;9.18;2.58;;;6.80;99.90;;;;;;5072803;28;20510;-62
2022/04/08 00:16:33;;;;;;;13.60;3.08;;;6.70;99.90;;;;;;5091551;28;20556;-61
2022/04/08 00:18:59;;;;;;;12.63;2.63;;;6.70;99.90;;;;;;5093957;28;20591;-61
2022/04/08 00:21:25;;;;;;;10.68;2.70;;;6.70;99.90;;;;;;5094863;28;20031;-59
2022/04/08 00:23:51;;;;;;;7.60;3.03;;;6.80;99.90;;;;;;5092254;28;20027;-63
2022/04/08 00:26:17;;;;;;;10.82;2.90;;;6.80;99.90;;;;;;5096089;28;20099;-59
2022/04/08 00:28:45;;;;;;;12.40;3.00;;;6.80;99.90;;;;;;5093140;28;20099;-60
2022/04/08 00:31:11;;;;;;;6.50;2.33;;;6.90;99.90;;;;;;5094539;28;20027;-62
2022/04/08 00:33:37;;;;;;;10.32;3.15;;;6.80;99.90;;;;;;5092369;28;20036;-63
2022/04/08 00:36:02;;;;;;;9.00;2.60;;;6.80;99.90;;;;;;5092894;28;20028;-61
2022/04/08 00:38:28;;;;;;;10.75;2.58;;;6.70;99.90;;;;;;5093248;28;20039;-63
2022/04/08 00:40:54;;;;;;;19.00;3.20;;;6.70;99.90;;;;;;5091704;28;20568;-62
2022/04/08 00:43:19;;;;;;;9.73;3.42;;;6.70;99.90;;;;;;5094629;28;20115;-61
2022/04/08 00:45:46;;;;;;;10.77;2.83;;;6.70;99.90;;;;;;5095529;28;20020;-62
2022/04/08 00:48:12;;;;;;;7.28;2.92;;;6.80;99.90;;;;;;5092751;28;20478;-60
2022/04/08 00:50:39;;;;;;;6.13;2.47;;;6.80;99.90;;;;;;5093929;28;20073;-62
2022/04/08 00:53:06;;;;;;;9.43;3.40;;;6.80;99.90;;;;;;5099092;28;20487;-62
2022/04/08 00:55:33;;;;;;;7.25;2.38;;;6.80;99.90;;;;;;5092369;28;20035;-64
2022/04/08 00:58:02;;;;;;;7.03;2.92;;;6.80;99.90;;;;;;5094851;28;20538;-64
2022/04/08 01:00:34;;;;;;;12.73;3.20;;;6.80;99.90;;;;;;5090538;28;21267;-62
2022/04/08 01:03:00;;;;;;;6.50;2.70;;;6.70;99.90;;;;;;5092617;28;20024;-62
2022/04/08 01:05:26;;;;;;;12.30;3.50;;;6.80;99.90;;;;;;5094668;28;20503;-61
2022/04/08 01:07:53;;;;;;;6.65;2.92;;;6.80;99.90;;;;;;5095960;28;20016;-60
2022/04/08 01:10:19;;;;;;;7.15;3.53;;;6.80;99.90;;;;;;5092970;28;20123;-63
2022/04/08 01:12:45;;;;;;;9.68;3.30;;;6.80;99.90;;;;;;5092811;28;20099;-62
2022/04/08 01:15:10;;;;;;;8.90;3.85;;;6.80;99.90;;;;;;5092077;28;20024;-61
2022/04/08 01:17:36;;;;;;;19.55;5.22;;;6.70;99.90;;;;;;5093691;28;20063;-62
2022/04/08 01:20:02;;;;;;;9.35;3.72;;;6.70;99.90;;;;;;5092142;28;20039;-62
2022/04/08 01:22:28;;;;;;;12.93;4.10;;;6.80;99.90;;;;;;5097393;28;20035;-65
2022/04/08 01:25:04;;;;;;;7.93;4.10;;;6.80;99.90;;;;;;5092084;28;20024;-62
2022/04/08 01:27:31;;;;;;;8.40;3.45;;;6.80;99.90;;;;;;5095546;28;20122;-62
2022/04/08 01:29:57;;;;;;;14.95;6.45;;;6.80;99.90;;;;;;5088662;28;20491;-62
2022/04/08 01:32:22;;;;;;;9.13;3.70;;;6.80;99.90;;;;;;5094348;28;20051;-63
2022/04/08 01:34:49;;;;;;;13.50;3.92;;;6.80;99.90;;;;;;5092331;28;20601;-61
2022/04/08 01:37:18;;;;;;;5.55;3.50;;;6.90;99.90;;;;;;5095759;28;20043;-60
2022/04/08 01:39:43;;;;;;;7.85;3.38;;;6.90;99.90;;;;;;5088837;28;20028;-65
2022/04/08 01:42:09;;;;;;;7.18;3.40;;;6.90;99.90;;;;;;5092273;28;20593;-63
2022/04/08 01:44:35;;;;;;;12.65;3.95;;;6.90;99.90;;;;;;5096069;28;20024;-64
2022/04/08 01:47:01;;;;;;;11.95;3.45;;;6.90;99.90;;;;;;5095670;28;20020;-63
2022/04/08 01:49:26;;;;;;;11.82;3.47;;;6.90;99.90;;;;;;5093118;28;20039;-61
2022/04/08 01:51:53;;;;;;;8.82;4.30;;;6.90;99.90;;;;;;5092232;28;20044;-62
2022/04/08 01:54:18;;;;;;;10.85;3.28;;;6.90;99.90;;;;;;5092451;28;20074;-63
2022/04/08 01:56:44;;;;;;;15.55;3.88;;;6.90;99.90;;;;;;5074569;28;20545;-62
2022/04/08 01:59:09;;;;;;;9.38;3.40;;;6.90;99.90;;;;;;5094748;28;20024;-62
2022/04/08 02:01:35;;;;;;;12.40;3.72;;;6.90;99.90;;;;;;5091350;28;20043;-64
2022/04/08 02:04:00;;;;;;;14.18;4.20;;;6.90;99.90;;;;;;5091347;28;20035;-62
2022/04/08 02:06:26;;;;;;;8.52;3.33;;;6.90;99.90;;;;;;5091653;28;20028;-61
2022/04/08 02:08:53;;;;;;;12.63;3.47;;;6.90;99.90;;;;;;5092314;28;20020;-63
2022/04/08 02:11:19;;;;;;;13.45;3.78;;;6.90;99.90;;;;;;5090344;28;20047;-62
2022/04/08 02:13:45;;;;;;;10.85;4.00;;;6.90;99.90;;;;;;5090816;28;20044;-63
2022/04/08 02:16:10;;;;;;;21.58;4.22;;;6.90;99.90;;;;;;5091436;28;20028;-65
2022/04/08 02:18:36;;;;;;;11.38;4.20;;;6.80;99.90;;;;;;5091593;28;20547;-63
2022/04/08 02:21:01;;;;;;;10.88;4.07;;;6.80;99.90;;;;;;5091418;28;20024;-62
2022/04/08 02:23:27;;;;;;;7.90;4.25;;;6.80;99.90;;;;;;5090539;28;20066;-62
2022/04/08 02:25:53;;;;;;;13.35;4.68;;;6.80;99.90;;;;;;5087329;28;20034;-64
2022/04/08 02:28:18;;;;;;;9.13;4.43;;;6.90;99.90;;;;;;5091764;28;20099;-63
2022/04/08 02:30:44;;;;;;;14.68;4.30;;;6.90;99.90;;;;;;5089445;28;20061;-61
2022/04/08 02:33:09;;;;;;;11.73;4.10;;;6.90;99.90;;;;;;5091240;28;20380;-63
2022/04/08 02:35:35;;;;;;;7.18;4.07;;;6.90;99.90;;;;;;5086581;28;20060;-63
2022/04/08 02:38:00;;;;;;;11.48;4.53;;;6.90;99.90;;;;;;5088744;28;20027;-63
2022/04/08 02:40:26;;;;;;;10.55;4.97;;;6.90;99.90;;;;;;5069953;28;20038;-64
2022/04/08 02:42:51;;;;;;;11.77;4.40;;;6.90;99.90;;;;;;5090608;28;20043;-64
2022/04/08 02:45:17;;;;;;;12.52;4.57;;;6.90;99.90;;;;;;5089884;28;20270;-64
2022/04/08 02:47:44;;;;;;;13.18;4.22;;;6.90;99.90;;;;;;5091312;28;20124;-63
2022/04/08 02:50:10;;;;;;;11.88;3.83;;;6.90;99.90;;;;;;5091483;28;20025;-65
2022/04/08 02:52:36;;;;;;;12.55;5.05;;;6.90;99.90;;;;;;5091040;28;20092;-62
2022/04/08 02:55:03;;;;;;;18.10;5.35;;;6.90;99.90;;;;;;5104276;22;20105;-59
2022/04/08 02:57:29;;;;;;;16.38;6.47;;;6.90;99.90;;;;;;5078430;28;20089;-58
2022/04/08 02:59:54;;;;;;;17.40;6.97;;;6.90;99.90;;;;;;5089428;28;20024;-58
2022/04/08 03:02:20;;;;;;;13.88;6.80;;;6.90;99.90;;;;;;5089420;28;20020;-57
2022/04/08 03:04:45;;;;;;;15.73;7.80;;;6.90;99.90;;;;;;5087102;28;20028;-59
2022/04/08 03:07:11;;;;;;;12.18;6.82;;;6.90;99.90;;;;;;5090047;28;20024;-59
2022/04/08 03:09:36;;;;;;;21.40;7.68;;;6.90;99.90;;;;;;5088788;28;20051;-56
2022/04/08 03:12:03;;;;;;;19.85;7.72;;;6.90;99.90;;;;;;5090483;28;20032;-56
2022/04/08 03:14:29;;;;;;;13.27;7.15;;;6.90;99.90;;;;;;5089167;28;20036;-59
2022/04/08 03:16:55;;;;;;;15.07;6.90;;;6.90;99.90;;;;;;5093044;28;20031;-60
2022/04/08 03:19:20;;;;;;;21.35;8.10;;;6.90;99.90;;;;;;5092262;28;20039;-63
2022/04/08 03:21:46;;;;;;;19.33;8.52;;;6.90;99.90;;;;;;5092409;28;20487;-58
2022/04/08 03:24:12;;;;;;;16.20;8.20;;;6.80;99.90;;;;;;5089149;28;20063;-54
2022/04/08 03:26:38;;;;;;;18.58;7.40;;;6.80;99.90;;;;;;5089466;28;20499;-58
2022/04/08 03:29:04;;;;;;;12.32;7.28;;;6.80;99.90;;;;;;5089559;28;20032;-56
2022/04/08 03:31:29;;;;;;;12.98;7.22;;;6.80;99.90;;;;;;5092060;28;20034;-56
2022/04/08 03:33:55;;;;;;;14.02;7.57;;;6.80;99.90;;;;;;5088786;28;20024;-60
2022/04/08 03:36:22;;;;;;;13.88;7.38;;;6.80;99.90;;;;;;5089225;28;20452;-61
2022/04/08 03:38:47;;;;;;;15.85;7.90;;;6.80;99.90;;;;;;5083587;28;20043;-61
2022/04/08 03:41:13;;;;;;;16.02;7.05;;;6.80;99.90;;;;;;5089281;28;20060;-56
2022/04/08 03:43:38;;;;;;;18.48;6.95;;;6.90;99.90;;;;;;5089194;28;20028;-60
2022/04/08 03:46:04;;;;;;;16.38;7.18;;;6.90;99.90;;;;;;5089822;28;20032;-61
2022/04/08 03:48:30;;;;;;;15.32;7.72;;;6.90;99.90;;;;;;5088124;28;20118;-61
2022/04/08 03:50:55;;;;;;;18.85;7.28;;;6.90;99.90;;;;;;5088135;28;20093;-58
2022/04/08 03:53:21;;;;;;;15.43;6.63;;;6.80;99.90;;;;;;5090742;28;20024;-60
2022/04/08 03:55:47;;;;;;;18.27;8.15;;;6.90;99.90;;;;;;5087920;28;20514;-60
2022/04/08 03:58:12;;;;;;;16.88;8.57;;;6.80;99.90;;;;;;5087414;28;20039;-62
2022/04/08 04:00:39;;;;;;;18.40;7.82;;;6.80;99.90;;;;;;5092610;28;20028;-59
2022/04/08 04:03:05;;;;;;;13.50;6.57;;;6.80;99.90;;;;;;5088341;28;20028;-55
2022/04/08 04:05:34;;;;;;;13.98;6.20;;;6.80;99.90;;;;;;5086956;28;20089;-58
2022/04/08 04:08:03;;;;;;;14.27;7.32;;;6.90;99.90;;;;;;5089548;28;20562;-61
2022/04/08 04:10:28;;;;;;;19.25;7.95;;;6.90;99.90;;;;;;5087792;28;20031;-54
2022/04/08 04:12:54;;;;;;;13.85;6.78;;;6.90;99.90;;;;;;5088609;28;20572;-61
2022/04/08 04:15:20;;;;;;;11.25;6.60;;;6.80;99.90;;;;;;5085525;28;20113;-58
2022/04/08 04:17:46;;;;;;;16.38;7.18;;;6.80;99.90;;;;;;5088349;28;20036;-57
2022/04/08 04:20:12;;;;;;;15.48;7.28;;;6.80;99.90;;;;;;5088081;28;20031;-59
2022/04/08 04:22:37;;;;;;;22.25;6.95;;;6.80;99.90;;;;;;5093827;28;20024;-58
2022/04/08 04:25:04;;;;;;;21.98;7.40;;;6.80;99.90;;;;;;5089487;28;20034;-58
2022/04/08 04:27:30;;;;;;;13.68;6.40;;;6.70;99.90;;;;;;5092657;28;20024;-57
2022/04/08 04:29:56;;;;;;;13.32;6.68;;;6.70;99.90;;;;;;5091169;28;20030;-59
2022/04/08 04:32:21;;;;;;;12.13;6.68;;;6.60;99.90;;;;;;5093341;28;20088;-61
2022/04/08 04:34:47;;;;;;;19.30;7.65;;;6.60;99.90;;;;;;5086454;28;20052;-56
2022/04/08 04:37:13;;;;;;;11.85;6.63;;;6.60;99.90;;;;;;5090083;28;20039;-55
2022/04/08 04:39:38;;;;;;;17.10;6.95;;;6.60;99.90;;;;;;5094968;28;20134;-60
2022/04/08 04:42:07;;;;;;;10.38;6.28;;;6.60;99.90;;;;;;5089237;28;20028;-61
2022/04/08 04:44:32;;;;;;;13.88;8.10;;;6.50;99.90;;;;;;5087695;28;20024;-56
2022/04/08 04:46:58;;;;;;;13.63;7.15;;;6.40;99.90;;;;;;5087745;28;20028;-56
2022/04/08 04:49:23;;;;;;;18.00;7.75;;;6.40;99.90;;;;;;5092045;28;20407;-56
2022/04/08 04:51:50;;;;;;;15.18;7.38;;;6.40;99.90;;;;;;5089058;28;20028;-58
2022/04/08 04:54:15;;;;;;;16.85;8.25;;;6.40;99.90;;;;;;5088071;28;20103;-55
2022/04/08 04:56:42;;;;;;;15.77;8.93;;;6.30;99.90;;;;;;5088838;28;20138;-57
2022/04/08 04:59:08;;;;;;;17.90;7.00;;;6.30;99.90;;;;;;5089967;28;20026;-62
2022/04/08 05:01:34;;;;;;;18.33;7.55;;;6.20;99.90;;;;;;5086168;28;20032;-59
2022/04/08 05:03:59;;;;;;;22.17;9.02;;;6.20;99.90;;;;;;5091555;28;20395;-58
2022/04/08 05:06:25;;;;;;;23.95;9.65;;;6.10;99.90;;;;;;5092873;28;20078;-59
2022/04/08 05:08:50;;;;;;;18.90;7.28;;;6.00;99.90;;;;;;5089914;28;20024;-58
2022/04/08 05:11:16;;;;;;;18.33;8.23;;;6.00;99.90;;;;;;5092193;28;20073;-59
2022/04/08 05:13:42;;;;;;;14.77;7.97;;;5.90;99.90;;;;;;5075623;28;20016;-61
2022/04/08 05:16:07;;;;;;;13.80;7.80;;;5.90;99.90;;;;;;5091078;28;20039;-58
2022/04/08 05:18:33;;;;;;;17.15;8.25;;;5.90;99.90;;;;;;5092044;28;20043;-58
2022/04/08 05:20:59;;;;;;;15.68;8.07;;;5.90;99.90;;;;;;5093263;28;20028;-57
2022/04/08 05:23:28;;;;;;;19.30;7.95;;;5.80;99.90;;;;;;5096698;28;20036;-58
2022/04/08 05:25:54;;;;;;;14.80;7.47;;;5.90;99.90;;;;;;5094796;28;20052;-57
2022/04/08 05:28:20;;;;;;;14.15;7.45;;;5.90;99.90;;;;;;5098994;28;20028;-55
2022/04/08 05:30:46;;;;;;;19.08;7.03;;;5.80;99.90;;;;;;5092367;28;20379;-58
2022/04/08 05:33:12;;;;;;;11.82;7.72;;;5.90;99.90;;;;;;5092412;28;20117;-58
2022/04/08 05:35:37;;;;;;;17.70;7.25;;;5.90;99.90;;;;;;5090791;28;20501;-61
2022/04/08 05:38:03;;;;;;;18.45;7.03;;;5.90;99.90;;;;;;5091313;28;20111;-55
2022/04/08 05:40:28;;;;;;;9.13;5.80;;;6.00;99.90;;;;;;5091149;28;20028;-53
2022/04/08 05:42:54;;;;;;;19.95;6.03;;;6.00;99.90;;;;;;5091726;28;20036;-59
2022/04/08 05:45:21;;;;;;;13.57;7.05;;;6.00;99.90;;;;;;5090607;28;20051;-57
2022/04/08 05:47:47;;;;;;;12.05;6.47;;;6.00;99.90;;;;;;5091369;28;20026;-61
2022/04/08 05:50:14;;;;;;;15.30;5.60;;;6.10;99.90;;;;;;5094948;28;20101;-59
2022/04/08 05:52:40;;;;;;;14.68;5.88;;;6.10;99.90;;;;;;5091840;28;20075;-60
2022/04/08 05:55:06;;;;;;;11.43;5.25;;;6.20;99.90;;;;;;5090839;28;20448;-59
2022/04/08 05:57:36;;;;;;;11.50;5.68;;;6.20;99.90;;;;;;5090774;28;20020;-61
2022/04/08 06:00:04;;;;;;;12.55;5.10;;;6.30;99.90;;;;;;5090881;28;20020;-58
2022/04/08 06:02:30;;;;;;;11.52;5.40;;;6.30;99.90;;;;;;5090934;28;20028;-59
2022/04/08 06:04:55;;;;;;;13.73;5.57;;;6.40;99.90;;;;;;5089892;28;20103;-60
2022/04/08 06:07:25;;;;;;;11.60;4.93;;;6.50;99.90;;;;;;5090617;28;20036;-59
2022/04/08 06:09:50;;;;;;;8.77;5.03;;;6.50;99.90;;;;;;5090775;28;20031;-57
2022/04/08 06:12:16;;;;;;;13.50;6.57;;;6.50;99.90;;;;;;5086993;28;20028;-59
2022/04/08 06:14:41;;;;;;;12.82;4.70;;;6.60;99.90;;;;;;5087934;28;20403;-58
2022/04/08 06:17:07;;;;;;;13.10;5.07;;;6.60;99.90;;;;;;5090924;28;20055;-56
2022/04/08 06:19:32;;;;;;;10.05;4.93;;;6.70;99.90;;;;;;5090581;28;20046;-60
2022/04/08 06:21:59;;;;;;;6.32;4.35;;;6.80;99.90;;;;;;5091141;28;20040;-58
2022/04/08 06:24:24;;;;;;;11.35;4.88;;;6.90;99.90;;;;;;5088735;28;20082;-59
2022/04/08 06:26:50;;;;;;;10.65;5.25;;;6.90;99.90;;;;;;5086351;28;20024;-57
2022/04/08 06:29:15;;;;;;;11.95;4.88;;;6.90;99.90;;;;;;5088264;28;20023;-61
2022/04/08 06:31:41;;;;;;;10.95;5.10;;;6.90;99.90;;;;;;5090928;28;20028;-61
2022/04/08 06:34:06;;;;;;;11.80;5.55;;;6.90;99.90;;;;;;5091779;28;20024;-58
2022/04/08 06:36:32;;;;;;;17.00;5.70;;;6.90;99.90;;;;;;5073998;28;20062;-57
2022/04/08 06:38:58;;;;;;;10.57;4.53;;;6.90;99.90;;;;;;5092341;28;20498;-61
2022/04/08 06:41:23;;;;;;;9.80;4.47;;;6.90;99.90;;;;;;5091844;28;20039;-58
2022/04/08 06:43:49;;;;;;;11.32;4.75;;;7.00;99.90;;;;;;5091208;28;20475;-59
2022/04/08 06:46:14;;;;;;;11.15;5.15;;;7.10;99.90;;;;;;5091703;28;20024;-57
2022/04/08 06:48:40;;;;;;;15.85;4.68;;;7.10;99.90;;;;;;5092761;28;20073;-56
2022/04/08 06:51:05;;;;;;;15.82;5.13;;;7.20;99.90;;;;;;5098879;28;20040;-58
2022/04/08 06:53:32;;;;;;;11.18;3.90;;;7.20;99.90;;;;;;5098946;28;20016;-58
2022/04/08 06:55:58;;;;;;;10.48;5.15;;;7.30;99.90;;;;;;5080487;28;20487;-57
2022/04/08 06:58:26;;;;;;;14.93;4.45;;;7.20;99.90;;;;;;5098780;28;20081;-57
2022/04/08 07:00:52;;;;;;;9.07;4.53;;;7.30;99.90;;;;;;5092328;28;20032;-58
2022/04/08 07:03:18;;;;;;;10.50;4.30;;;7.30;99.90;;;;;;5092095;28;20162;-57
2022/04/08 07:05:44;;;;;;;10.00;4.93;;;7.40;99.90;;;;;;5091948;28;20103;-60
2022/04/08 07:08:09;;;;;;;11.68;5.13;;;7.40;99.90;;;;;;5091445;28;20020;-62
2022/04/08 07:10:35;;;;;;;15.50;6.10;;;7.40;99.90;;;;;;5090711;28;20824;-59
2022/04/08 07:13:00;;;;;;;8.48;4.90;;;7.60;99.90;;;;;;5091129;28;20027;-59
2022/04/08 07:15:26;;;;;;;9.05;4.45;;;7.60;99.90;;;;;;5090606;28;20103;-59
2022/04/08 07:17:51;;;;;;;10.73;5.07;;;7.70;99.90;;;;;;5091290;28;20393;-59
2022/04/08 07:20:18;;;;;;;8.68;5.05;;;7.70;99.90;;;;;;5090863;28;20107;-59
2022/04/08 07:22:44;;;;;;;8.65;4.57;;;7.80;99.90;;;;;;5090838;28;20380;-59
2022/04/08 07:25:10;;;;;;;13.05;5.25;;;7.80;99.90;;;;;;5089942;28;20094;-59
2022/04/08 07:27:42;;;;;;;15.52;5.30;;;7.80;99.90;;;;;;5090615;28;20103;-61
2022/04/08 07:30:08;;;;;;;11.80;4.80;;;7.70;99.90;;;;;;5091055;28;20125;-58
2022/04/08 07:32:34;;;;;;;13.32;4.75;;;7.50;99.90;;;;;;5090908;28;20491;-54
2022/04/08 07:34:59;;;;;;;10.60;4.93;;;7.50;99.90;;;;;;5090962;28;20068;-61
2022/04/08 07:37:32;;;;;;;11.82;4.70;;;7.70;99.90;;;;;;5090866;28;20059;-60
2022/04/08 07:39:58;;;;;;;10.88;5.70;;;7.80;99.90;;;;;;5072659;28;20036;-62
2022/04/08 07:42:24;;;;;;;9.90;4.63;;;7.90;99.90;;;;;;5091153;28;20047;-61
2022/04/08 07:44:50;;;;;;;11.90;5.07;;;7.80;99.90;;;;;;5090274;28;20020;-57
2022/04/08 07:47:18;;;;;;;9.57;4.95;;;7.70;99.90;;;;;;5091130;28;20446;-62
2022/04/08 07:49:43;;;;;;;11.10;4.80;;;7.80;99.90;;;;;;5090562;28;20032;-59
2022/04/08 07:52:09;;;;;;;9.25;5.45;;;7.90;99.90;;;;;;5090989;28;20024;-57
2022/04/08 07:54:34;;;;;;;9.10;5.53;;;7.90;99.90;;;;;;5090317;28;20079;-61
2022/04/08 07:57:01;;;;;;;11.10;5.20;;;8.00;99.90;;;;;;5090766;28;20093;-59
2022/04/08 07:59:27;;;;;;;9.85;4.80;;;8.00;99.90;;;;;;5090909;28;20555;-61
2022/04/08 08:01:52;;;;;;;8.32;4.53;;;8.00;99.90;;;;;;5090793;28;20042;-60
2022/04/08 08:04:18;;;;;;;12.35;4.57;;;8.00;99.90;;;;;;5090248;28;20427;-58
2022/04/08 08:06:43;;;;;;;16.67;5.07;;;8.00;99.90;;;;;;5090951;28;20040;-58
2022/04/08 08:09:09;;;;;;;11.88;4.32;;;8.10;99.90;;;;;;5090518;28;20439;-56
2022/04/08 08:11:35;;;;;;;9.95;4.43;;;8.10;99.90;;;;;;5072627;28;20024;-59
2022/04/08 08:14:01;;;;;;;11.45;4.57;;;8.20;99.90;;;;;;5090739;28;20024;-54
2022/04/08 08:16:26;;;;;;;10.55;4.43;;;8.20;99.90;;;;;;5090365;28;20020;-57
2022/04/08 08:18:56;;;;;;;8.57;4.10;;;8.30;99.90;;;;;;5089991;28;20052;-61
2022/04/08 08:21:23;;;;;;;10.20;4.45;;;8.30;99.90;;;;;;5090450;28;20107;-59
2022/04/08 08:23:48;;;;;;;9.43;3.72;;;8.30;99.90;;;;;;5089560;28;20024;-59
2022/04/08 08:26:14;;;;;;;10.90;3.92;;;8.40;99.90;;;;;;5090091;28;20032;-59
2022/04/08 08:28:39;;;;;;;9.57;3.95;;;8.40;99.90;;;;;;5090329;28;20367;-61
2022/04/08 08:31:05;;;;;;;12.55;3.80;;;8.40;99.90;;;;;;5090293;28;20027;-61
2022/04/08 08:33:30;;;;;;;8.68;3.60;;;8.40;99.90;;;;;;5090030;28;20024;-57
2022/04/08 08:35:56;;;;;;;10.18;3.40;;;8.20;99.90;;;;;;5090324;28;20028;-57
2022/04/08 08:38:22;;;;;;;7.20;4.20;;;8.10;99.90;;;;;;5092865;28;20031;-59
2022/04/08 08:40:48;;;;;;;9.00;3.78;;;8.20;99.90;;;;;;5093208;28;20024;-61
2022/04/08 08:43:17;;;;;;;8.30;3.92;;;8.30;99.90;;;;;;5094010;28;20028;-59
2022/04/08 08:45:48;;;;;;;9.23;4.15;;;8.30;99.90;;;;;;5093994;28;20455;-58
2022/04/08 08:48:17;;;;;;;6.60;3.17;;;8.30;99.90;;;;;;5097123;28;20103;-61
2022/04/08 08:50:50;;;;;;;12.65;3.80;;;8.30;99.90;;;;;;5094741;28;20817;-60
2022/04/08 08:53:18;;;;;;;4.75;2.55;;;8.30;99.90;;;;;;5095153;28;20036;-60
2022/04/08 08:55:44;;;;;;;6.15;2.90;;;8.20;99.90;;;;;;5097121;28;20032;-59
2022/04/08 08:58:09;;;;;;;6.35;2.95;;;8.20;99.90;;;;;;5095293;28;20032;-57
2022/04/08 09:00:36;;;;;;;14.68;3.40;;;8.30;99.90;;;;;;5091342;28;20023;-54
2022/04/08 09:03:05;;;;;;;4.70;2.55;;;8.30;99.90;;;;;;5098671;28;20024;-59
2022/04/08 09:05:41;;;;;;;7.90;2.78;;;8.50;99.90;;;;;;5095903;28;20024;-58
2022/04/08 09:08:09;;;;;;;4.35;2.78;;;8.40;99.90;;;;;;5098157;28;20042;-59
2022/04/08 09:10:42;;;;;;;6.95;3.50;;;8.60;99.90;;;;;;5094695;28;20027;-54
2022/04/08 09:13:09;;;;;;;7.63;3.40;;;8.60;99.90;;;;;;5093545;28;20378;-58
2022/04/08 09:15:37;;;;;;;9.68;4.00;;;8.60;99.90;;;;;;5093933;28;20024;-59
2022/04/08 09:18:14;;;;;;;8.00;3.38;;;8.50;99.90;;;;;;5092872;28;20032;-54
2022/04/08 09:20:44;;;;;;;15.27;4.18;;;8.70;99.90;;;;;;5097928;28;20026;-59
2022/04/08 09:23:11;;;;;;;7.78;3.72;;;8.70;99.90;;;;;;5100374;28;20553;-56
2022/04/08 09:25:37;;;;;;;9.80;3.30;;;8.60;99.90;;;;;;5092612;28;20043;-58
2022/04/08 09:28:06;;;;;;;12.13;3.50;;;8.70;99.90;;;;;;5092681;28;20027;-58
2022/04/08 09:30:32;;;;;;;8.48;3.15;;;8.70;99.90;;;;;;5097998;28;20076;-56
2022/04/08 09:32:58;;;;;;;8.65;3.90;;;8.70;99.90;;;;;;5099544;28;20533;-59
2022/04/08 09:35:26;;;;;;;11.20;3.97;;;8.70;99.90;;;;;;5099361;28;20032;-59
2022/04/08 09:38:01;;;;;;;11.20;3.92;;;8.70;99.90;;;;;;5093594;28;20020;-57
2022/04/08 09:40:47;;;;;;;7.65;4.13;;;8.70;99.90;;;;;;5091675;28;20407;-56
2022/04/08 09:43:14;;;;;;;8.32;4.65;;;8.50;99.90;;;;;;5084594;28;20040;-59
2022/04/08 09:45:40;;;;;;;10.90;5.15;;;8.60;99.90;;;;;;5095364;28;20047;-54
2022/04/08 09:48:07;;;;;;;14.05;5.15;;;8.60;99.90;;;;;;5093092;28;20115;-59
2022/04/08 09:50:34;;;;;;;9.80;4.32;;;8.70;99.90;;;;;;5092520;28;20398;-58
2022/04/08 09:53:02;;;;;;;13.45;4.70;;;8.70;99.90;;;;;;5092945;28;20028;-57
2022/04/08 09:55:28;;;;;;;8.27;4.40;;;8.80;99.90;;;;;;5092434;28;20035;-56
2022/04/08 09:58:03;;;;;;;14.45;4.20;;;8.90;99.90;;;;;;5092878;28;20036;-59
2022/04/08 10:00:30;;;;;;;6.15;3.53;;;9.00;99.90;;;;;;5092810;28;20020;-57
2022/04/08 10:03:00;;;;;;;14.20;5.13;;;9.10;99.90;;;;;;5092668;28;20063;-56
2022/04/08 10:05:26;;;;;;;9.32;4.20;;;9.20;99.90;;;;;;5091691;28;20078;-56
2022/04/08 10:07:54;;;;;;;10.05;4.75;;;9.10;99.90;;;;;;5092439;28;20395;-55
2022/04/08 10:10:37;;;;;;;7.93;4.53;;;9.10;99.90;;;;;;5085271;28;20059;-59
2022/04/08 10:13:26;;;;;;;11.70;4.72;;;8.90;99.90;;;;;;5087385;28;20104;-54
2022/04/08 10:16:19;;;;;;;8.60;4.72;;;8.70;99.90;;;;;;5091385;28;20039;-55
2022/04/08 10:18:46;;;;;;;12.35;5.88;;;8.70;99.90;;;;;;5092147;28;20461;-59
2022/04/08 10:21:12;;;;;;;16.88;6.18;;;8.60;99.90;;;;;;5092152;28;20035;-58
2022/04/08 10:23:59;;;;;;;10.18;6.15;;;8.60;99.90;;;;;;5089641;28;20111;-56
2022/04/08 10:26:26;;;;;;;13.18;6.75;;;8.60;99.90;;;;;;5091115;28;20044;-59
2022/04/08 10:28:54;;;;;;;13.55;7.05;;;8.60;99.90;;;;;;5091566;28;20027;-56
2022/04/08 10:31:23;;;;;;;14.50;6.72;;;8.70;99.90;;;;;;5091767;28;20035;-58
2022/04/08 10:33:59;;;;;;;11.10;5.75;;;8.80;99.90;;;;;;5091304;28;20041;-56
2022/04/08 10:36:33;;;;;;;12.63;6.30;;;8.80;99.90;;;;;;5091803;28;20032;-57
2022/04/08 10:39:11;;;;;;;;;;;8.80;99.90;;;;;;5093224;28;20031;-55
2022/04/08 10:41:47;;;;;;;12.98;7.05;;;8.80;99.90;;;;;;5106850;28;19908;-56
2022/04/08 10:44:12;;;;;;;16.60;6.45;;;8.80;99.90;;;;;;5086768;28;20364;-56
2022/04/08 10:46:51;;;;;;;12.27;5.70;;;8.80;99.90;;;;;;5091921;28;20090;-55
2022/04/08 10:49:17;;;;;;;12.30;6.18;;;8.80;99.90;;;;;;5088237;28;20078;-56
2022/04/08 10:51:45;;;;;;;9.90;6.00;;;8.80;99.90;;;;;;5090860;28;20028;-56
2022/04/08 10:54:11;;;;;;;9.73;5.65;;;8.90;99.90;;;;;;5093607;28;20024;-56
2022/04/08 10:56:37;;;;;;;16.52;6.38;;;8.90;99.90;;;;;;5090348;28;20024;-57
2022/04/08 10:59:04;;;;;;;12.93;6.97;;;8.90;99.90;;;;;;5093707;28;20038;-58
2022/04/08 11:01:34;;;;;;;11.93;6.38;;;9.00;99.90;;;;;;5093736;28;20128;-59
2022/04/08 11:04:05;;;;;;;14.25;5.72;;;9.00;99.90;;;;;;5091457;28;20023;-54
2022/04/08 11:06:32;;;;;;;9.60;6.18;;;9.00;99.90;;;;;;5093567;28;20680;-57
2022/04/08 11:09:09;;;;;;;11.85;6.00;;;9.00;99.90;;;;;;5099322;28;20534;-57
2022/04/08 11:11:39;;;;;;;9.93;5.22;;;8.90;99.90;;;;;;5091389;28;20045;-55
2022/04/08 11:14:06;;;;;;;10.05;5.50;;;9.00;99.90;;;;;;5090959;28;20047;-57
2022/04/08 11:16:33;;;;;;;12.00;5.30;;;9.00;99.90;;;;;;5097027;28;20021;-57
2022/04/08 11:19:00;;;;;;;12.88;5.93;;;9.10;99.90;;;;;;5091538;28;20053;-59
2022/04/08 11:21:28;;;;;;;17.45;7.65;;;9.20;99.90;;;;;;5090139;28;20367;-56
2022/04/08 11:24:00;;;;;;;11.52;4.90;;;9.30;99.90;;;;;;5086483;28;20483;-57
2022/04/08 11:26:28;;;;;;;17.92;5.80;;;9.30;99.90;;;;;;5088202;28;20492;-56
2022/04/08 11:29:08;;;;;;;14.98;5.82;;;9.20;99.90;;;;;;5089961;28;20024;-55
2022/04/08 11:31:34;;;;;;;10.95;5.72;;;9.10;99.90;;;;;;5089845;28;20417;-56
2022/04/08 11:34:03;;;;;;;15.45;6.80;;;9.20;99.90;;;;;;5090026;28;20039;-54
2022/04/08 11:36:28;;;;;;;12.57;6.82;;;9.20;99.90;;;;;;5088944;28;20024;-55
2022/04/08 11:38:54;;;;;;;12.45;6.15;;;9.20;99.90;;;;;;5091448;28;20366;-57
2022/04/08 11:41:20;;;;;;;12.27;6.20;;;9.10;99.90;;;;;;5089889;28;20034;-57
2022/04/08 11:43:46;;;;;;;14.57;7.30;;;9.20;99.90;;;;;;5089956;28;20492;-58
2022/04/08 11:46:16;;;;;;;22.17;7.30;;;9.20;99.90;;;;;;5081606;28;20052;-57
2022/04/08 11:48:42;;;;;;;17.15;7.15;;;9.30;99.90;;;;;;5077710;28;20020;-58
2022/04/08 11:51:08;;;;;;;19.63;8.70;;;9.40;99.90;;;;;;5087876;28;20457;-57
2022/04/08 11:53:48;;;;;;;16.95;8.88;;;9.40;99.90;;;;;;5090677;28;20088;-57
2022/04/08 11:56:25;;;;;;;16.30;8.27;;;9.30;99.90;;;;;;5066945;28;20040;-57
2022/04/08 11:58:56;;;;;;;20.65;8.40;;;9.10;99.90;;;;;;5094815;28;20049;-58
2022/04/08 12:01:22;;;;;;;16.20;8.35;;;8.90;99.90;;;;;;5090077;28;20024;-59
2022/04/08 12:03:51;;;;;;;17.10;8.00;;;9.00;99.90;;;;;;5091343;28;20058;-59
2022/04/08 12:06:18;;;;;;;13.35;8.05;;;9.10;99.90;;;;;;5095332;28;20390;-57
2022/04/08 12:08:47;;;;;;;17.48;8.45;;;9.20;99.90;;;;;;5071751;28;20039;-58
2022/04/08 12:11:13;;;;;;;16.73;8.18;;;9.20;99.90;;;;;;5091591;28;20020;-57
2022/04/08 12:13:41;;;;;;;15.77;8.02;;;9.20;99.90;;;;;;5100706;28;20061;-57
2022/04/08 12:16:12;;;;;;;18.67;8.57;;;9.20;99.90;;;;;;5091573;28;20115;-57
2022/04/08 12:18:51;;;;;;;18.27;8.13;;;9.00;99.90;;;;;;5093846;28;20479;-53
2022/04/08 12:21:45;;;;;;;18.80;7.78;;;9.00;99.90;;;;;;5075984;28;20054;-56
2022/04/08 12:24:11;;;;;;;14.75;7.75;;;9.10;99.90;;;;;;5095613;28;20089;-57
2022/04/08 12:26:38;;;;;;;15.75;6.85;;;9.10;99.90;;;;;;5092812;28;20024;-59
2022/04/08 12:29:13;;;;;;;14.90;6.82;;;9.20;99.90;;;;;;5097286;28;20048;-57
2022/04/08 12:31:46;;;;;;;15.48;5.85;;;9.30;99.90;;;;;;5088580;28;20055;-55
2022/04/08 12:34:11;;;;;;;14.30;6.35;;;9.30;99.90;;;;;;5088225;28;20048;-58
2022/04/08 12:36:37;;;;;;;18.35;7.13;;;9.30;99.90;;;;;;5093208;28;20093;-56
2022/04/08 12:39:04;;;;;;;19.25;7.95;;;9.40;99.90;;;;;;5094756;28;20070;-55
2022/04/08 12:41:29;;;;;;;18.35;7.85;;;9.40;99.90;;;;;;5092787;28;20034;-54
2022/04/08 12:43:57;;;;;;;17.02;8.50;;;9.40;99.90;;;;;;5093141;28;20099;-59
2022/04/08 12:46:23;;;;;;;20.90;8.30;;;9.30;99.90;;;;;;5079937;28;20115;-55
2022/04/08 12:48:48;;;;;;;14.82;8.00;;;9.30;99.90;;;;;;5090587;28;20127;-54
2022/04/08 12:51:14;;;;;;;22.25;9.30;;;9.30;99.90;;;;;;5095632;28;20380;-58